Time;durP1;ratioP1;P1;durP2;ratioP2;P2;SDS_P1;SDS_P2;PMS_P1;PMS_P2;Temp;Humidity;BMP_temperature;BMP_pressure;BME280_temperature;BME280_humidity;BME280_pressure;Samples;Min_cycle;Max_cycle;Signal;HPM_P1;HPM_P2
2022/11/14 00:02:14;;;;;;;26.88;16.35;;;;;;;2.71;100.00;101769.84;7380219;19;20018;-74
2022/11/14 00:04:48;;;;;;;28.25;16.33;;;;;;;2.72;100.00;101776.81;7385851;19;20067;-73
2022/11/14 00:07:27;;;;;;;24.95;16.70;;;;;;;2.73;100.00;101783.78;7381012;19;20057;-73
2022/11/14 00:09:58;;;;;;;25.60;17.15;;;;;;;2.81;100.00;101782.53;7383100;19;20015;-73
2022/11/14 00:12:34;;;;;;;27.95;16.70;;;;;;;2.76;100.00;101767.53;7382865;19;20368;-74
2022/11/14 00:15:19;;;;;;;24.52;15.93;;;;;;;2.77;100.00;101771.91;7383712;19;20030;-73
2022/11/14 00:17:51;;;;;;;;;;;;;;;2.82;100.00;101771.38;7380237;19;20002;-74
2022/11/14 00:20:28;;;;;;;26.50;16.00;;;;;;;3.00;100.00;101774.16;7376308;19;19942;-74
2022/11/14 00:22:58;;;;;;;26.75;17.00;;;;;;;2.98;100.00;101773.19;7375624;19;20021;-73
2022/11/14 00:25:44;;;;;;;27.10;16.42;;;;;;;2.99;100.00;101776.66;7375772;19;21131;-74
2022/11/14 00:28:26;;;;;;;27.75;17.98;;;;;;;3.00;100.00;101768.09;7378533;19;20379;-73
2022/11/14 00:31:09;;;;;;;30.13;19.23;;;;;;;2.93;100.00;101770.31;7379420;19;20086;-73
2022/11/14 00:33:47;;;;;;;28.48;16.45;;;;;;;2.83;100.00;101762.81;7374672;19;20074;-73
2022/11/14 00:39:24;;;;;;;25.85;16.45;;;;;;;2.72;100.00;101756.09;7373688;19;20010;-73
2022/11/14 00:42:26;;;;;;;27.98;16.85;;;;;;;2.70;100.00;101760.28;7377105;19;20090;-74
2022/11/14 00:45:10;;;;;;;25.42;16.77;;;;;;;2.73;100.00;101763.06;7375890;19;20024;-73
2022/11/14 00:47:46;;;;;;;30.25;18.60;;;;;;;2.86;100.00;101751.72;7376516;19;20019;-73
2022/11/14 00:51:01;;;;;;;29.02;19.08;;;;;;;2.90;100.00;101753.69;7369621;19;20014;-73
2022/11/14 00:53:36;;;;;;;31.98;19.08;;;;;;;2.97;100.00;101742.00;7373490;19;20010;-74
2022/11/14 00:56:14;;;;;;;27.95;16.48;;;;;;;2.94;100.00;101730.66;7375120;19;20026;-73
2022/11/14 00:59:09;;;;;;;33.22;18.25;;;;;;;2.94;100.00;101734.94;7377947;19;20043;-73
2022/11/14 01:02:01;;;;;;;;;;;;;;;;;;;;;
2022/11/14 01:04:50;;;;;;;30.63;18.02;;;;;;;3.04;100.00;101733.78;7377732;19;20073;-73
2022/11/14 01:07:50;;;;;;;30.02;17.50;;;;;;;3.08;100.00;101725.38;7379904;19;20006;-74
2022/11/14 01:10:44;;;;;;;30.45;17.35;;;;;;;3.08;100.00;101720.19;7379604;19;20013;-73
2022/11/14 01:13:36;;;;;;;29.60;16.60;;;;;;;3.06;100.00;101714.00;7378582;19;20011;-73
2022/11/14 01:16:18;;;;;;;27.95;17.63;;;;;;;3.06;100.00;101716.59;7378994;19;20022;-73
2022/11/14 01:18:52;;;;;;;27.55;15.30;;;;;;;3.04;100.00;101721.69;7376838;19;20359;-74
2022/11/14 01:21:27;;;;;;;29.73;16.52;;;;;;;3.08;100.00;101715.00;7376535;19;20051;-74
2022/11/14 01:24:28;;;;;;;28.38;16.98;;;;;;;3.11;100.00;101726.44;7379189;19;20015;-73
2022/11/14 01:27:45;;;;;;;29.73;17.58;;;;;;;3.08;100.00;101709.81;7379124;19;20465;-73
2022/11/14 01:30:41;;;;;;;27.83;16.67;;;;;;;3.14;100.00;101703.25;7379543;19;20597;-73
2022/11/14 01:36:15;;;;;;;31.52;18.02;;;;;;;3.21;100.00;101691.53;7380995;19;20018;-73
2022/11/14 01:39:00;;;;;;;27.55;17.38;;;;;;;3.26;100.00;101687.50;7379515;19;20014;-73
2022/11/14 01:41:47;;;;;;;24.98;15.77;;;;;;;3.24;100.00;101691.69;7379168;19;20029;-73
2022/11/14 01:44:57;;;;;;;27.13;15.77;;;;;;;3.35;100.00;101685.41;7375353;19;20018;-73
2022/11/14 01:47:41;;;;;;;27.80;15.63;;;;;;;3.36;100.00;101665.56;7371499;19;20017;-73
2022/11/14 01:50:20;;;;;;;28.92;16.55;;;;;;;3.42;100.00;101674.56;7374806;19;20018;-73
2022/11/14 01:53:07;;;;;;;29.20;16.13;;;;;;;3.50;100.00;101670.69;7373010;19;20010;-73
2022/11/14 01:59:02;;;;;;;24.25;15.23;;;;;;;3.54;100.00;101664.88;7371655;19;20115;-73
2022/11/14 02:01:44;;;;;;;23.42;14.43;;;;;;;3.52;100.00;101663.91;7376517;19;20047;-72
2022/11/14 02:04:30;;;;;;;26.08;16.38;;;;;;;3.54;100.00;101659.69;7377066;19;20101;-73
2022/11/14 02:10:45;;;;;;;23.65;14.40;;;;;;;3.56;100.00;101644.22;7377019;19;20010;-73
2022/11/14 02:13:57;;;;;;;24.50;14.75;;;;;;;3.57;100.00;101639.09;7374298;19;20498;-73
2022/11/14 02:17:07;;;;;;;25.25;15.38;;;;;;;3.57;100.00;101643.41;7368491;19;20010;-73
2022/11/14 02:20:12;;;;;;;24.67;14.60;;;;;;;3.57;100.00;101643.41;7375616;19;20115;-73
2022/11/14 02:22:50;;;;;;;23.02;15.90;;;;;;;3.53;100.00;101629.38;7375616;19;20018;-74
2022/11/14 02:25:51;;;;;;;24.58;14.88;;;;;;;3.48;100.00;101625.63;7373679;19;20011;-73
2022/11/14 02:28:49;;;;;;;22.40;14.40;;;;;;;3.47;100.00;101620.38;7373199;19;20475;-73
2022/11/14 02:31:32;;;;;;;27.42;14.95;;;;;;;3.45;100.00;101624.56;7373134;19;20013;-73
2022/11/14 02:34:15;;;;;;;22.98;14.57;;;;;;;3.45;100.00;101617.69;7375242;19;20015;-73
2022/11/14 02:36:52;;;;;;;26.88;15.32;;;;;;;3.44;100.00;101613.31;7375645;19;20315;-73
2022/11/14 02:39:37;;;;;;;25.27;14.80;;;;;;;3.41;100.00;101615.75;7373571;19;20003;-73
2022/11/14 02:42:21;;;;;;;22.80;13.75;;;;;;;3.38;100.00;101609.50;7372301;19;20014;-73
2022/11/14 02:44:56;;;;;;;25.02;14.55;;;;;;;3.35;100.00;101612.81;7372541;19;20052;-73
2022/11/14 02:47:43;;;;;;;27.85;14.98;;;;;;;3.34;100.00;101608.44;7373799;19;20078;-74
2022/11/14 02:53:13;;;;;;;24.85;14.65;;;;;;;3.31;100.00;101595.31;7370525;19;20428;-73
2022/11/14 02:56:02;;;;;;;;;;;;;;;;;;;;;
2022/11/14 02:58:57;;;;;;;25.73;14.57;;;;;;;3.32;100.00;101599.69;7370312;19;20074;-73
2022/11/14 03:01:37;;;;;;;29.65;14.65;;;;;;;3.32;100.00;101586.72;7372832;19;20015;-73
2022/11/14 03:09:54;;;;;;;31.20;15.65;;;;;;;3.34;100.00;101590.28;7374623;19;20039;-73
2022/11/14 03:12:50;;;;;;;27.48;15.45;;;;;;;3.32;100.00;101586.72;7378935;19;20013;-73
2022/11/14 03:15:31;;;;;;;25.73;14.75;;;;;;;3.37;100.00;101587.84;7374291;19;20026;-73
2022/11/14 03:18:17;;;;;;;26.50;15.27;;;;;;;3.40;100.00;101584.53;7377470;19;20619;-73
2022/11/14 03:20:53;;;;;;;29.10;16.33;;;;;;;3.39;100.00;101574.97;7377800;19;20010;-73
2022/11/14 03:23:36;;;;;;;30.77;16.05;;;;;;;3.40;100.00;101590.63;7378185;19;20043;-73
2022/11/14 03:26:27;;;;;;;29.83;16.00;;;;;;;3.37;100.00;101585.28;7376412;19;20035;-73
2022/11/14 03:29:18;;;;;;;30.30;15.98;;;;;;;3.37;100.00;101585.28;7381367;19;20378;-73
2022/11/14 03:32:02;;;;;;;28.10;15.98;;;;;;;3.33;100.00;101588.50;7380111;19;20027;-73
2022/11/14 03:34:38;;;;;;;27.65;15.50;;;;;;;3.28;100.00;101588.25;7376895;19;20019;-73
2022/11/14 03:37:24;;;;;;;;;;;;;;;;;;;;;
2022/11/14 03:43:12;;;;;;;29.75;15.63;;;;;;;3.08;100.00;101583.72;7377901;19;20051;-73
2022/11/14 03:46:17;;;;;;;;;;;;;;;;;;;;;
2022/11/14 03:49:22;;;;;;;27.98;14.65;;;;;;;3.02;100.00;101575.59;7378361;19;20007;-73
2022/11/14 03:58:25;;;;;;;30.38;16.20;;;;;;;2.94;100.00;101576.88;7379068;19;20367;-73
2022/11/14 04:01:48;;;;;;;;;;;;;;;;;;;;;
2022/11/14 04:04:47;;;;;;;28.65;14.32;;;;;;;2.87;100.00;101566.97;7377641;19;20406;-73
2022/11/14 04:07:30;;;;;;;29.67;17.05;;;;;;;2.84;100.00;101559.03;7380717;19;20020;-75
2022/11/14 04:10:30;;;;;;;31.42;15.77;;;;;;;2.81;100.00;101549.41;7376695;19;20582;-73
2022/11/14 04:16:26;;;;;;;30.77;16.23;;;;;;;2.84;100.00;101549.56;7377783;19;20010;-73
2022/11/14 04:19:06;;;;;;;32.88;16.00;;;;;;;2.82;100.00;101553.78;7382808;19;20049;-74
2022/11/14 04:24:56;;;;;;;32.95;17.95;;;;;;;2.82;100.00;101543.41;7379324;19;20017;-74
2022/11/14 04:27:58;;;;;;;27.48;15.05;;;;;;;2.79;100.00;101553.59;7383006;19;20047;-74
2022/11/14 04:30:44;;;;;;;31.20;16.45;;;;;;;2.76;100.00;101548.25;7374848;19;20299;-73
2022/11/14 04:33:41;;;;;;;32.55;17.83;;;;;;;2.71;100.00;101541.91;7377566;19;20043;-73
2022/11/14 04:36:13;;;;;;;33.38;15.57;;;;;;;2.69;100.00;101533.16;7379125;19;20367;-74
2022/11/14 04:38:55;;;;;;;31.58;16.90;;;;;;;2.72;100.00;101542.81;7378053;19;20025;-72
2022/11/14 04:41:32;;;;;;;31.45;16.25;;;;;;;2.71;100.00;101539.31;7378756;19;20494;-73
2022/11/14 04:44:16;;;;;;;34.45;19.35;;;;;;;2.72;100.00;101529.84;7377387;19;20017;-73
2022/11/14 04:47:00;;;;;;;36.40;17.40;;;;;;;2.71;100.00;101533.25;7376856;19;20093;-73
2022/11/14 04:50:21;;;;;;;35.88;18.17;;;;;;;2.69;100.00;101529.69;7376559;19;20023;-72
2022/11/14 04:53:17;;;;;;;30.50;16.30;;;;;;;2.65;100.00;101520.84;7376498;19;20025;-72
2022/11/14 04:55:56;;;;;;;34.80;17.50;;;;;;;2.61;100.00;101526.66;7379946;19;20365;-72
2022/11/14 04:58:56;;;;;;;35.00;16.52;;;;;;;2.56;100.00;101518.66;7376344;19;20472;-73
2022/11/14 05:01:31;;;;;;;32.97;17.05;;;;;;;2.52;100.00;101515.78;7380250;19;20010;-72
2022/11/14 05:04:03;;;;;;;40.10;18.95;;;;;;;2.51;100.00;101506.25;7376033;19;20447;-74
2022/11/14 05:06:49;;;;;;;37.58;17.50;;;;;;;2.48;100.00;101506.06;7376137;19;20014;-74
2022/11/14 05:09:19;;;;;;;37.33;18.65;;;;;;;2.46;100.00;101497.31;7379038;19;20015;-73
2022/11/14 05:12:12;;;;;;;35.45;18.08;;;;;;;2.46;100.00;101494.75;7377241;19;20013;-73
2022/11/14 05:14:55;;;;;;;33.78;16.67;;;;;;;2.43;100.00;101484.22;7375715;19;20022;-72
2022/11/14 05:17:30;;;;;;;36.15;18.83;;;;;;;2.44;100.00;101492.06;7378607;19;20014;-73
2022/11/14 05:22:57;;;;;;;41.67;18.58;;;;;;;2.39;100.00;101492.63;7374721;19;20011;-73
2022/11/14 05:25:27;;;;;;;42.97;18.95;;;;;;;2.39;100.00;101488.31;7372216;19;20011;-73
2022/11/14 05:27:57;;;;;;;39.63;18.23;;;;;;;2.38;100.00;101483.94;7374567;19;20029;-73
2022/11/14 05:30:35;;;;;;;41.15;17.83;;;;;;;2.37;100.00;101489.03;7378814;19;20510;-73
2022/11/14 05:33:08;;;;;;;37.70;17.70;;;;;;;2.37;100.00;101486.47;7381065;19;20033;-73
2022/11/14 05:35:56;;;;;;;37.15;18.17;;;;;;;2.49;100.00;101484.56;7380724;19;20010;-73
2022/11/14 05:38:28;;;;;;;34.47;16.52;;;;;;;2.35;100.00;101491.53;7373098;19;20574;-73
2022/11/14 05:40:58;;;;;;;38.13;17.90;;;;;;;2.29;100.00;101486.91;7374789;19;20386;-73
2022/11/14 05:43:32;;;;;;;36.15;17.50;;;;;;;2.23;100.00;101489.16;7376309;19;20051;-73
2022/11/14 05:46:05;;;;;;;;;;;;;;;2.21;100.00;101490.75;7378576;19;20198;-73
2022/11/14 05:48:41;;;;;;;38.53;17.85;;;;;;;2.19;100.00;101486.31;7377632;19;19919;-73
2022/11/14 05:51:21;;;;;;;40.75;18.02;;;;;;;2.14;100.00;101482.56;7371872;19;20014;-73
2022/11/14 05:53:54;;;;;;;43.10;19.88;;;;;;;2.13;100.00;101473.00;7372557;19;20017;-74
2022/11/14 05:56:38;;;;;;;35.80;17.42;;;;;;;2.08;100.00;101469.31;7374539;19;20015;-73
2022/11/14 05:59:10;;;;;;;43.22;20.00;;;;;;;2.09;100.00;101468.47;7373501;19;20015;-73
2022/11/14 06:01:43;;;;;;;41.88;19.00;;;;;;;2.06;100.00;101466.63;7374874;19;20566;-73
2022/11/14 06:04:15;;;;;;;36.33;16.98;;;;;;;2.06;100.00;101476.09;7375918;19;20459;-74
2022/11/14 06:06:49;;;;;;;42.95;19.25;;;;;;;2.02;100.00;101472.44;7374602;19;20032;-73
2022/11/14 06:09:19;;;;;;;38.53;18.90;;;;;;;1.99;100.00;101472.25;7375291;19;20078;-74
2022/11/14 06:11:53;;;;;;;40.28;19.65;;;;;;;1.96;100.00;101479.84;7374106;19;20014;-74
2022/11/14 06:14:23;;;;;;;41.25;20.13;;;;;;;1.95;100.00;101475.47;7374172;19;20006;-74
2022/11/14 06:16:54;;;;;;;40.65;19.55;;;;;;;1.95;100.00;101478.06;7375907;19;20678;-73
2022/11/14 06:19:25;;;;;;;34.50;19.75;;;;;;;1.87;100.00;101487.97;7376586;19;20010;-73
2022/11/14 06:21:58;;;;;;;42.42;18.73;;;;;;;1.87;100.00;101487.06;7374286;19;20074;-74
2022/11/14 06:24:31;;;;;;;36.22;17.13;;;;;;;1.86;100.00;101485.28;7375019;19;20047;-73
2022/11/14 06:27:03;;;;;;;43.70;19.73;;;;;;;1.82;100.00;101484.22;7371115;19;20039;-73
2022/11/14 06:29:32;;;;;;;36.78;18.73;;;;;;;1.81;100.00;101482.44;7375637;19;20014;-73
2022/11/14 06:32:04;;;;;;;40.60;18.20;;;;;;;1.78;100.00;101482.25;7374073;19;20609;-73
2022/11/14 06:34:34;;;;;;;38.22;19.40;;;;;;;1.73;100.00;101494.03;7375079;19;20025;-73
2022/11/14 06:37:07;;;;;;;43.30;20.15;;;;;;;1.73;100.00;101485.38;7376042;19;20546;-74
2022/11/14 06:39:37;;;;;;;45.25;20.42;;;;;;;1.72;100.00;101481.00;7371562;19;20057;-74
2022/11/14 06:42:07;;;;;;;43.78;18.80;;;;;;;1.71;100.00;101480.09;7375931;19;20022;-73
2022/11/14 06:44:38;;;;;;;45.33;20.95;;;;;;;1.75;100.00;101481.19;7373518;19;20472;-73
2022/11/14 06:47:08;;;;;;;45.60;19.60;;;;;;;1.76;100.00;101477.78;7372610;19;20024;-73
2022/11/14 06:49:40;;;;;;;40.03;18.73;;;;;;;1.77;100.00;101474.41;7376212;19;20026;-72
2022/11/14 06:52:12;;;;;;;48.95;20.00;;;;;;;1.76;100.00;101475.19;7371109;19;20019;-73
2022/11/14 06:54:42;;;;;;;41.67;18.33;;;;;;;1.77;100.00;101474.41;7371067;19;20014;-73
2022/11/14 06:57:12;;;;;;;40.78;18.42;;;;;;;1.75;100.00;101473.41;7375745;19;20017;-72
2022/11/14 06:59:42;;;;;;;44.55;19.38;;;;;;;1.73;100.00;101478.50;7375876;19;20006;-72
2022/11/14 07:02:13;;;;;;;39.67;19.75;;;;;;;1.70;100.00;101480.91;7373296;19;20007;-73
2022/11/14 07:04:51;;;;;;;37.83;17.23;;;;;;;1.67;100.00;101485.91;7373404;19;20043;-73
2022/11/14 07:07:23;;;;;;;47.67;19.50;;;;;;;1.64;100.00;101486.59;7375823;19;20014;-72
2022/11/14 07:09:57;;;;;;;41.47;18.35;;;;;;;1.63;100.00;101482.25;7375244;19;20570;-72
2022/11/14 07:12:28;;;;;;;42.45;18.98;;;;;;;1.63;100.00;101486.50;7374928;19;20122;-73
2022/11/14 07:14:58;;;;;;;41.78;19.60;;;;;;;1.62;100.00;101477.88;7371811;19;20007;-72
2022/11/14 07:17:27;;;;;;;45.88;19.55;;;;;;;1.62;100.00;101482.16;7372996;19;20026;-72
2022/11/14 07:20:00;;;;;;;41.40;19.13;;;;;;;1.61;100.00;101475.19;7376685;19;20023;-72
2022/11/14 07:22:39;;;;;;;39.40;17.95;;;;;;;1.61;100.00;101468.34;7375241;19;20046;-73
2022/11/14 07:25:22;;;;;;;47.15;19.55;;;;;;;1.64;100.00;101460.75;7374871;19;20018;-71
2022/11/14 07:27:53;;;;;;;53.25;22.63;;;;;;;1.64;100.00;101459.84;7374212;19;20022;-72
2022/11/14 07:30:26;;;;;;;41.80;20.13;;;;;;;1.67;100.00;101466.91;7375070;19;20011;-71
2022/11/14 07:33:12;;;;;;;;;;;;;;;;;;;;;
2022/11/14 07:35:50;;;;;;;42.58;18.00;;;;;;;1.74;100.00;101454.44;7369559;19;20051;-72
2022/11/14 07:38:39;;;;;;;41.17;19.83;;;;;;;1.76;100.00;101467.44;7368649;19;20074;-71
2022/11/14 07:41:20;;;;;;;44.53;19.63;;;;;;;1.80;100.00;101462.53;7374265;19;20467;-72
2022/11/14 07:43:55;;;;;;;50.38;21.52;;;;;;;1.83;100.00;101460.13;7372317;19;20011;-73
2022/11/14 07:46:29;;;;;;;33.85;18.10;;;;;;;1.86;100.00;101459.41;7365501;19;20015;-72
2022/11/14 07:49:04;;;;;;;40.95;18.75;;;;;;;1.88;100.00;101443.19;7373080;19;20055;-74
2022/11/14 07:51:34;;;;;;;43.00;19.35;;;;;;;1.92;100.00;101455.50;7371634;19;20062;-73
2022/11/14 07:54:07;;;;;;;35.55;18.05;;;;;;;1.97;100.00;101448.00;7370319;19;20356;-74
2022/11/14 07:56:37;;;;;;;40.88;18.10;;;;;;;2.07;100.00;101447.72;7375391;19;20025;-73
2022/11/14 07:59:06;;;;;;;41.08;18.95;;;;;;;2.08;100.00;101448.59;7375011;19;20014;-73
2022/11/14 08:01:38;;;;;;;37.25;17.02;;;;;;;2.13;100.00;101444.56;7374200;19;20030;-72
2022/11/14 08:04:10;;;;;;;38.85;18.33;;;;;;;2.17;100.00;101450.00;7374213;19;20007;-72
2022/11/14 08:06:40;;;;;;;41.95;18.92;;;;;;;2.22;100.00;101445.06;7371722;19;20638;-72
2022/11/14 08:09:14;;;;;;;39.20;18.85;;;;;;;2.24;100.00;101441.75;7372014;19;20018;-72
2022/11/14 08:11:49;;;;;;;;;;;;;;;2.29;100.00;101450.69;7372842;19;20014;-72
2022/11/14 08:14:19;;;;;;;39.75;17.83;;;;;;;2.34;100.00;101443.16;7373414;19;19929;-72
2022/11/14 08:16:49;;;;;;;36.88;17.85;;;;;;;2.39;100.00;101443.44;7375202;19;20010;-72
2022/11/14 08:19:19;;;;;;;44.15;18.38;;;;;;;2.42;100.00;101436.72;7380173;19;20022;-73
2022/11/14 08:21:52;;;;;;;40.50;17.60;;;;;;;2.52;100.00;101435.53;7377955;19;20010;-72
2022/11/14 08:24:25;;;;;;;38.53;18.92;;;;;;;2.56;100.00;101432.31;7378786;19;20020;-72
2022/11/14 08:26:55;;;;;;;37.85;18.00;;;;;;;2.62;100.00;101437.81;7379410;19;20010;-72
2022/11/14 08:29:25;;;;;;;38.15;18.02;;;;;;;2.63;100.00;101434.41;7381780;19;20021;-72
2022/11/14 08:31:55;;;;;;;32.95;17.67;;;;;;;2.69;100.00;101434.75;7378189;19;20011;-72
2022/11/14 08:34:29;;;;;;;32.85;17.92;;;;;;;2.74;100.00;101435.00;7380968;19;20019;-73
2022/11/14 08:36:59;;;;;;;38.63;17.83;;;;;;;2.76;100.00;101430.78;7376603;19;20782;-72
2022/11/14 08:39:31;;;;;;;34.17;19.00;;;;;;;2.73;100.00;101431.53;7382381;19;20426;-73
2022/11/14 08:42:01;;;;;;;40.80;19.08;;;;;;;2.78;100.00;101427.47;7381360;19;20018;-72
2022/11/14 08:44:30;;;;;;;37.25;17.83;;;;;;;2.81;100.00;101427.66;7383412;19;20094;-72
2022/11/14 08:47:02;;;;;;;30.70;17.85;;;;;;;2.87;100.00;101420.19;7376351;19;20010;-71
2022/11/14 08:49:34;;;;;;;32.53;18.45;;;;;;;2.88;100.00;101418.50;7377136;19;20006;-71
2022/11/14 08:52:12;;;;;;;33.47;16.10;;;;;;;2.94;100.00;101422.31;7374130;19;20015;-71
2022/11/14 08:54:54;;;;;;;32.80;16.45;;;;;;;2.97;100.00;101413.81;7377150;19;20006;-72
2022/11/14 08:57:25;;;;;;;28.40;14.80;;;;;;;3.03;100.00;101411.53;7384799;19;20021;-71
2022/11/14 08:59:57;;;;;;;36.20;17.50;;;;;;;3.06;100.00;101405.63;7381681;19;20356;-72
2022/11/14 09:02:38;;;;;;;33.00;17.75;;;;;;;3.09;100.00;101401.50;7375725;19;20021;-72
2022/11/14 09:05:18;;;;;;;36.67;18.98;;;;;;;3.13;100.00;101397.31;7383705;19;20366;-72
2022/11/14 09:07:49;;;;;;;37.65;17.48;;;;;;;3.18;100.00;101396.75;7381868;19;20086;-73
2022/11/14 09:10:22;;;;;;;25.77;15.57;;;;;;;3.19;100.00;101398.53;7375094;19;20549;-72
2022/11/14 09:12:58;;;;;;;32.47;18.13;;;;;;;3.26;100.00;101404.94;7379779;19;20011;-72
2022/11/14 09:15:32;;;;;;;27.85;16.13;;;;;;;3.32;100.00;101402.66;7384590;19;20046;-72
2022/11/14 09:18:02;;;;;;;31.92;18.05;;;;;;;3.41;100.00;101399.63;7376030;19;20010;-73
2022/11/14 09:20:32;;;;;;;32.63;17.60;;;;;;;3.46;100.00;101392.97;7379856;19;20014;-74
2022/11/14 09:23:08;;;;;;;31.92;17.13;;;;;;;3.53;100.00;101395.97;7380044;19;20018;-73
2022/11/14 09:25:41;;;;;;;33.10;17.20;;;;;;;3.70;100.00;101398.50;7377745;19;20010;-73
2022/11/14 09:28:11;;;;;;;31.67;16.77;;;;;;;3.83;100.00;101386.22;7375376;19;20038;-72
2022/11/14 09:30:42;;;;;;;33.08;18.10;;;;;;;3.99;100.00;101385.25;7377941;19;20014;-73
2022/11/14 09:33:12;;;;;;;29.52;17.38;;;;;;;4.09;100.00;101371.91;7379470;19;20021;-72
2022/11/14 09:35:42;;;;;;;33.13;17.38;;;;;;;4.20;100.00;101370.69;7380198;19;20237;-73
2022/11/14 09:38:13;;;;;;;34.10;16.55;;;;;;;4.32;100.00;101372.97;7376383;19;20014;-75
2022/11/14 09:40:57;;;;;;;33.85;18.38;;;;;;;4.43;100.00;101378.66;7380747;19;20021;-72
2022/11/14 09:43:45;;;;;;;28.20;16.35;;;;;;;4.61;100.00;101371.72;7379799;19;20011;-71
2022/11/14 09:46:24;;;;;;;32.20;17.83;;;;;;;4.73;100.00;101364.47;7379183;19;20014;-71
2022/11/14 09:48:58;;;;;;;27.83;16.33;;;;;;;4.86;100.00;101371.09;7376618;19;20094;-72
2022/11/14 09:51:39;;;;;;;27.13;16.02;;;;;;;4.99;100.00;101364.75;7375008;19;20025;-72
2022/11/14 09:54:19;;;;;;;26.30;15.88;;;;;;;5.09;100.00;101356.53;7375014;19;20040;-72
2022/11/14 09:56:53;;;;;;;30.38;15.88;;;;;;;5.27;100.00;101359.88;7331578;19;20470;-72
2022/11/14 09:59:25;;;;;;;32.75;16.75;;;;;;;5.40;100.00;101353.50;7376671;19;20015;-72
2022/11/14 10:02:03;;;;;;;27.02;16.15;;;;;;;5.49;100.00;101348.69;7373951;19;20018;-73
2022/11/14 10:04:58;;;;;;;27.20;16.10;;;;;;;5.51;100.00;101349.63;7373119;19;20019;-72
2022/11/14 10:07:34;;;;;;;;;;;;;;;5.57;100.00;101337.75;7373855;19;20018;-72
2022/11/14 10:10:16;;;;;;;29.73;16.20;;;;;;;5.62;100.00;101344.88;7375451;19;19946;-72
2022/11/14 10:13:09;;;;;;;27.70;16.02;;;;;;;5.71;100.00;101340.03;7377041;19;20018;-73
2022/11/14 10:15:48;;;;;;;26.85;16.23;;;;;;;5.80;100.00;101343.91;7378587;19;20030;-72
2022/11/14 10:18:40;;;;;;;28.73;15.60;;;;;;;5.84;100.00;101338.00;7375959;19;20018;-72
2022/11/14 10:21:23;;;;;;;25.55;16.17;;;;;;;5.99;100.00;101335.16;7377718;19;20437;-72
2022/11/14 10:24:04;;;;;;;25.30;14.88;;;;;;;6.00;100.00;101333.44;7375712;19;20021;-73
2022/11/14 10:26:49;;;;;;;28.48;15.82;;;;;;;6.11;100.00;101333.03;7376748;19;20025;-72
2022/11/14 10:29:46;;;;;;;29.75;17.83;;;;;;;6.20;100.00;101325.56;7374817;19;20021;-72
2022/11/14 10:32:27;;;;;;;24.05;15.73;;;;;;;6.31;100.00;101327.66;7372235;19;20165;-72
2022/11/14 10:35:02;;;;;;;26.40;15.40;;;;;;;6.49;100.00;101333.56;7375230;19;20010;-73
2022/11/14 10:37:39;;;;;;;24.70;15.60;;;;;;;6.58;100.00;101331.31;7374334;19;20600;-72
2022/11/14 10:40:19;;;;;;;25.85;15.73;;;;;;;6.62;100.00;101343.63;7374115;19;20054;-72
2022/11/14 10:42:53;;;;;;;27.25;15.07;;;;;;;6.72;100.00;101343.13;7374712;19;20018;-72
2022/11/14 10:45:31;;;;;;;25.10;14.95;;;;;;;6.70;100.00;101334.38;7372177;19;20011;-73
2022/11/14 10:48:04;;;;;;;22.80;14.88;;;;;;;6.65;100.00;101322.88;7370946;19;20006;-72
2022/11/14 10:50:42;;;;;;;23.63;14.98;;;;;;;6.55;100.00;101320.78;7369679;19;20051;-72
2022/11/14 10:53:26;;;;;;;19.95;13.60;;;;;;;6.57;100.00;101333.03;7373990;19;20007;-73
2022/11/14 10:55:57;;;;;;;19.20;12.88;;;;;;;6.63;100.00;101326.28;7375887;19;20002;-73
2022/11/14 10:58:33;;;;;;;23.10;15.30;;;;;;;6.81;100.00;101314.78;7377770;19;20018;-73
2022/11/14 11:01:38;;;;;;;20.27;13.27;;;;;;;6.98;100.00;101311.91;7372115;19;20126;-72
2022/11/14 11:04:26;;;;;;;25.13;15.75;;;;;;;7.07;100.00;101307.00;7370693;19;20017;-72
2022/11/14 11:06:58;;;;;;;22.38;14.82;;;;;;;7.09;100.00;101310.56;7371897;19;20014;-72
2022/11/14 11:12:18;;;;;;;25.45;15.52;;;;;;;7.15;100.00;101297.72;7371553;19;20011;-72
2022/11/14 11:18:40;;;;;;;28.10;15.53;;;;;;;7.12;100.00;101287.19;7370785;19;20014;-74
2022/11/14 11:32:28;;;;;;;25.95;16.27;;;;;;;8.04;100.00;101271.03;7369974;19;20356;-74
2022/11/14 11:35:40;;;;;;;43.70;19.95;;;;;;;8.07;100.00;101273.72;7371560;19;20022;-73
2022/11/14 11:38:15;;;;;;;43.65;20.90;;;;;;;8.04;100.00;101265.78;7369993;19;20122;-74
2022/11/14 11:41:00;;;;;;;43.53;20.58;;;;;;;8.17;100.00;101270.53;7376865;19;20074;-73
2022/11/14 11:43:41;;;;;;;40.55;19.67;;;;;;;8.09;100.00;101266.81;7374845;19;20010;-73
2022/11/14 11:46:21;;;;;;;32.97;18.05;;;;;;;8.15;100.00;101271.34;7372564;19;20010;-74
2022/11/14 11:49:01;;;;;;;33.17;18.23;;;;;;;8.26;100.00;101263.81;7374184;19;20018;-73
2022/11/14 11:51:39;;;;;;;39.10;18.48;;;;;;;8.43;100.00;101262.59;7380579;19;20014;-72
2022/11/14 11:54:15;;;;;;;37.30;18.52;;;;;;;8.52;100.00;101268.97;7379194;19;20010;-73
2022/11/14 11:56:47;;;;;;;35.20;18.00;;;;;;;8.55;100.00;101267.28;7380692;19;20007;-72
2022/11/14 11:59:32;;;;;;;34.08;17.30;;;;;;;8.65;100.00;101264.06;7381473;19;20589;-71
2022/11/14 12:06:01;;;;;;;30.35;17.20;;;;;;;8.73;100.00;101273.91;7380768;19;20019;-72
2022/11/14 12:09:34;;;;;;;34.53;17.42;;;;;;;8.72;100.00;101263.41;7376921;19;20048;-72
2022/11/14 12:12:56;;;;;;;30.60;17.33;;;;;;;8.82;100.00;101271.53;7375333;19;20018;-72
2022/11/14 12:15:40;;;;;;;33.60;16.95;;;;;;;8.78;100.00;101260.94;7374654;19;20125;-73
2022/11/14 12:18:48;;;;;;;38.70;18.83;;;;;;;8.93;100.00;101260.47;7374445;19;20514;-72
2022/11/14 12:22:05;;;;;;;36.08;18.88;;;;;;;9.05;100.00;101250.34;7376817;19;21749;-71
2022/11/14 12:26:02;;;;;;;34.63;18.00;;;;;;;8.98;100.00;101244.06;7373808;19;20010;-72
2022/11/14 12:29:32;;;;;;;35.85;18.45;;;;;;;9.18;100.00;101228.88;7374767;19;21174;-72
2022/11/14 12:32:21;;;;;;;31.20;17.90;;;;;;;9.29;100.00;101221.28;7373319;19;20013;-72
2022/11/14 12:34:58;;;;;;;31.23;17.58;;;;;;;9.41;100.00;101214.59;7375712;19;20014;-72
2022/11/14 12:37:34;;;;;;;30.73;17.98;;;;;;;9.47;100.00;101217.34;7373847;19;20011;-71
2022/11/14 12:40:28;;;;;;;27.58;16.33;;;;;;;9.59;100.00;101214.13;7373692;19;20443;-70
2022/11/14 12:43:03;;;;;;;31.70;18.10;;;;;;;9.68;100.00;101218.69;7372349;19;20525;-71
2022/11/14 12:46:10;;;;;;;33.10;16.90;;;;;;;9.80;100.00;101212.00;7375349;19;20002;-71
2022/11/14 12:48:41;;;;;;;31.30;16.75;;;;;;;9.79;100.00;101215.47;7378141;19;20006;-69
2022/11/14 12:51:40;;;;;;;27.00;16.38;;;;;;;9.69;100.00;101207.38;7373179;19;20018;-68
2022/11/14 12:54:46;;;;;;;33.22;17.83;;;;;;;9.67;100.00;101206.44;7373713;19;20467;-68
2022/11/14 13:00:13;;;;;;;25.50;16.73;;;;;;;9.90;100.00;101197.38;7369220;19;20018;-69
2022/11/14 13:03:09;;;;;;;29.23;16.52;;;;;;;9.89;100.00;101187.75;7375971;19;20020;-68
2022/11/14 13:05:55;;;;;;;27.25;16.80;;;;;;;9.91;100.00;101183.41;7375610;19;20021;-68
2022/11/14 13:09:07;;;;;;;26.13;16.00;;;;;;;10.06;100.00;101165.41;7373810;19;20015;-69
2022/11/14 13:23:58;;;;;;;24.92;14.43;;;;;;;10.09;100.00;101170.69;7375467;19;20014;-68
2022/11/14 13:26:53;;;;;;;26.02;16.80;;;;;;;9.98;100.00;101177.47;7371570;19;20578;-68
2022/11/14 13:29:57;;;;;;;21.02;13.95;;;;;;;10.02;100.00;101175.78;7376352;19;20018;-68
2022/11/14 13:33:06;;;;;;;27.37;16.30;;;;;;;10.17;100.00;101183.97;7372207;19;20011;-68
2022/11/14 13:35:46;;;;;;;26.70;15.70;;;;;;;9.97;100.00;101173.06;7370668;19;20024;-69
2022/11/14 13:38:40;;;;;;;21.45;14.02;;;;;;;10.01;100.00;101176.63;7373880;19;20033;-68
2022/11/14 13:41:39;;;;;;;31.17;15.02;;;;;;;10.02;100.00;101174.06;7374397;19;20025;-68
2022/11/14 13:45:01;;;;;;;23.60;14.07;;;;;;;9.93;100.00;101173.84;7370485;19;20010;-69